sensor_id;sensor_type;location;lat;lon;timestamp;P1;durP1;ratioP1;P2;durP2;ratioP2
31306;SDS011;17935;51.120;13.132;2022-10-16T00:01:08;1.33;;;1.13;;
31306;SDS011;17935;51.120;13.132;2022-10-16T00:03:36;1.70;;;0.93;;
31306;SDS011;17935;51.120;13.132;2022-10-16T00:06:02;1.13;;;1.02;;
31306;SDS011;17935;51.120;13.132;2022-10-16T00:08:28;3.88;;;1.00;;
31306;SDS011;17935;51.120;13.132;2022-10-16T00:11:05;1.08;;;1.05;;
31306;SDS011;17935;51.120;13.132;2022-10-16T00:13:32;1.05;;;0.98;;
31306;SDS011;17935;51.120;13.132;2022-10-16T00:15:59;1.05;;;0.95;;
31306;SDS011;17935;51.120;13.132;2022-10-16T00:18:25;2.42;;;1.10;;
31306;SDS011;17935;51.120;13.132;2022-10-16T00:20:52;1.25;;;1.15;;
31306;SDS011;17935;51.120;13.132;2022-10-16T00:23:18;1.17;;;1.08;;
31306;SDS011;17935;51.120;13.132;2022-10-16T00:25:44;1.13;;;1.02;;
31306;SDS011;17935;51.120;13.132;2022-10-16T00:28:09;2.00;;;1.02;;
31306;SDS011;17935;51.120;13.132;2022-10-16T00:30:39;1.20;;;1.10;;
31306;SDS011;17935;51.120;13.132;2022-10-16T00:33:05;2.53;;;1.17;;
31306;SDS011;17935;51.120;13.132;2022-10-16T00:35:31;1.15;;;0.90;;
31306;SDS011;17935;51.120;13.132;2022-10-16T00:37:57;1.73;;;1.20;;
31306;SDS011;17935;51.120;13.132;2022-10-16T00:40:23;3.03;;;1.00;;
31306;SDS011;17935;51.120;13.132;2022-10-16T00:42:49;1.83;;;1.00;;
31306;SDS011;17935;51.120;13.132;2022-10-16T00:45:15;2.10;;;0.90;;
31306;SDS011;17935;51.120;13.132;2022-10-16T00:47:42;1.60;;;1.35;;
31306;SDS011;17935;51.120;13.132;2022-10-16T00:50:16;3.60;;;0.90;;
31306;SDS011;17935;51.120;13.132;2022-10-16T00:52:47;2.58;;;0.95;;
31306;SDS011;17935;51.120;13.132;2022-10-16T00:55:14;1.73;;;0.98;;
31306;SDS011;17935;51.120;13.132;2022-10-16T01:00:08;0.93;;;0.80;;
31306;SDS011;17935;51.120;13.132;2022-10-16T01:02:34;0.90;;;0.90;;
31306;SDS011;17935;51.120;13.132;2022-10-16T01:05:00;2.00;;;1.00;;
31306;SDS011;17935;51.120;13.132;2022-10-16T01:10:04;3.03;;;0.90;;
31306;SDS011;17935;51.120;13.132;2022-10-16T01:20:08;0.70;;;0.70;;
31306;SDS011;17935;51.120;13.132;2022-10-16T01:22:38;1.15;;;1.00;;
31306;SDS011;17935;51.120;13.132;2022-10-16T01:25:05;1.15;;;0.80;;
31306;SDS011;17935;51.120;13.132;2022-10-16T01:27:35;1.73;;;1.00;;
31306;SDS011;17935;51.120;13.132;2022-10-16T01:30:06;1.10;;;1.00;;
31306;SDS011;17935;51.120;13.132;2022-10-16T01:32:39;1.00;;;0.90;;
31306;SDS011;17935;51.120;13.132;2022-10-16T01:37:33;7.85;;;0.90;;
31306;SDS011;17935;51.120;13.132;2022-10-16T01:40:02;1.95;;;0.90;;
31306;SDS011;17935;51.120;13.132;2022-10-16T01:42:30;0.98;;;0.80;;
31306;SDS011;17935;51.120;13.132;2022-10-16T01:45:00;0.98;;;0.70;;
31306;SDS011;17935;51.120;13.132;2022-10-16T01:47:26;2.67;;;0.95;;
31306;SDS011;17935;51.120;13.132;2022-10-16T01:49:53;0.75;;;0.73;;
31306;SDS011;17935;51.120;13.132;2022-10-16T01:52:21;0.68;;;0.68;;
31306;SDS011;17935;51.120;13.132;2022-10-16T01:54:49;2.20;;;0.75;;
31306;SDS011;17935;51.120;13.132;2022-10-16T01:57:16;0.90;;;0.90;;
31306;SDS011;17935;51.120;13.132;2022-10-16T01:59:44;0.60;;;0.60;;
31306;SDS011;17935;51.120;13.132;2022-10-16T02:02:11;1.48;;;0.90;;
31306;SDS011;17935;51.120;13.132;2022-10-16T02:07:04;0.70;;;0.70;;
31306;SDS011;17935;51.120;13.132;2022-10-16T02:09:32;2.67;;;0.77;;
31306;SDS011;17935;51.120;13.132;2022-10-16T02:11:59;0.75;;;0.70;;
31306;SDS011;17935;51.120;13.132;2022-10-16T02:14:27;2.35;;;1.05;;
31306;SDS011;17935;51.120;13.132;2022-10-16T02:16:53;1.60;;;0.82;;
31306;SDS011;17935;51.120;13.132;2022-10-16T02:19:19;0.80;;;0.80;;
31306;SDS011;17935;51.120;13.132;2022-10-16T02:24:38;1.13;;;1.02;;
31306;SDS011;17935;51.120;13.132;2022-10-16T02:27:13;0.88;;;0.88;;
31306;SDS011;17935;51.120;13.132;2022-10-16T02:29:42;0.90;;;0.90;;
31306;SDS011;17935;51.120;13.132;2022-10-16T02:32:13;0.75;;;0.75;;
31306;SDS011;17935;51.120;13.132;2022-10-16T02:34:41;1.00;;;1.00;;
31306;SDS011;17935;51.120;13.132;2022-10-16T02:37:07;0.95;;;0.80;;
31306;SDS011;17935;51.120;13.132;2022-10-16T02:39:33;1.05;;;0.95;;
31306;SDS011;17935;51.120;13.132;2022-10-16T02:42:00;0.85;;;0.75;;
31306;SDS011;17935;51.120;13.132;2022-10-16T02:44:26;1.95;;;1.02;;
31306;SDS011;17935;51.120;13.132;2022-10-16T02:46:51;1.42;;;0.95;;
31306;SDS011;17935;51.120;13.132;2022-10-16T02:49:18;3.38;;;0.95;;
31306;SDS011;17935;51.120;13.132;2022-10-16T02:51:44;1.15;;;0.85;;
31306;SDS011;17935;51.120;13.132;2022-10-16T02:54:10;2.70;;;1.00;;
31306;SDS011;17935;51.120;13.132;2022-10-16T02:56:35;1.25;;;0.90;;
31306;SDS011;17935;51.120;13.132;2022-10-16T02:59:01;1.38;;;1.27;;
31306;SDS011;17935;51.120;13.132;2022-10-16T03:01:27;1.00;;;1.00;;
31306;SDS011;17935;51.120;13.132;2022-10-16T03:03:53;0.90;;;0.88;;
31306;SDS011;17935;51.120;13.132;2022-10-16T03:06:19;1.20;;;0.90;;
31306;SDS011;17935;51.120;13.132;2022-10-16T03:08:45;0.80;;;0.80;;
31306;SDS011;17935;51.120;13.132;2022-10-16T03:11:11;3.70;;;0.90;;
31306;SDS011;17935;51.120;13.132;2022-10-16T03:13:37;1.35;;;0.95;;
31306;SDS011;17935;51.120;13.132;2022-10-16T03:16:03;1.42;;;1.00;;
31306;SDS011;17935;51.120;13.132;2022-10-16T03:18:29;2.05;;;1.15;;
31306;SDS011;17935;51.120;13.132;2022-10-16T03:20:55;4.45;;;1.40;;
31306;SDS011;17935;51.120;13.132;2022-10-16T03:23:21;1.10;;;1.00;;
31306;SDS011;17935;51.120;13.132;2022-10-16T03:25:47;1.17;;;1.00;;
31306;SDS011;17935;51.120;13.132;2022-10-16T03:28:13;1.20;;;1.10;;
31306;SDS011;17935;51.120;13.132;2022-10-16T03:30:39;2.70;;;1.20;;
31306;SDS011;17935;51.120;13.132;2022-10-16T03:33:05;2.28;;;1.13;;
31306;SDS011;17935;51.120;13.132;2022-10-16T03:35:32;3.45;;;1.00;;
31306;SDS011;17935;51.120;13.132;2022-10-16T03:37:58;1.02;;;1.00;;
31306;SDS011;17935;51.120;13.132;2022-10-16T03:40:24;3.47;;;1.15;;
31306;SDS011;17935;51.120;13.132;2022-10-16T03:42:50;2.53;;;1.20;;
31306;SDS011;17935;51.120;13.132;2022-10-16T03:45:16;3.05;;;1.40;;
31306;SDS011;17935;51.120;13.132;2022-10-16T03:47:42;1.40;;;1.30;;
31306;SDS011;17935;51.120;13.132;2022-10-16T03:50:08;4.43;;;1.60;;
31306;SDS011;17935;51.120;13.132;2022-10-16T03:52:34;4.45;;;1.33;;
31306;SDS011;17935;51.120;13.132;2022-10-16T03:55:00;2.45;;;1.30;;
31306;SDS011;17935;51.120;13.132;2022-10-16T03:57:26;1.42;;;1.33;;
31306;SDS011;17935;51.120;13.132;2022-10-16T03:59:52;1.45;;;1.20;;
31306;SDS011;17935;51.120;13.132;2022-10-16T04:02:18;2.08;;;1.50;;
31306;SDS011;17935;51.120;13.132;2022-10-16T04:04:44;1.45;;;1.35;;
31306;SDS011;17935;51.120;13.132;2022-10-16T04:07:10;1.70;;;1.17;;
31306;SDS011;17935;51.120;13.132;2022-10-16T04:09:36;3.28;;;1.10;;
31306;SDS011;17935;51.120;13.132;2022-10-16T04:12:02;4.32;;;1.27;;
31306;SDS011;17935;51.120;13.132;2022-10-16T04:14:28;1.40;;;1.30;;
31306;SDS011;17935;51.120;13.132;2022-10-16T04:16:54;1.45;;;1.23;;
31306;SDS011;17935;51.120;13.132;2022-10-16T04:19:20;1.60;;;1.50;;
31306;SDS011;17935;51.120;13.132;2022-10-16T04:21:46;1.30;;;1.20;;
31306;SDS011;17935;51.120;13.132;2022-10-16T04:24:12;2.35;;;1.20;;
31306;SDS011;17935;51.120;13.132;2022-10-16T04:26:38;1.42;;;1.13;;
31306;SDS011;17935;51.120;13.132;2022-10-16T04:29:04;1.77;;;1.17;;
31306;SDS011;17935;51.120;13.132;2022-10-16T04:31:31;3.08;;;1.10;;
31306;SDS011;17935;51.120;13.132;2022-10-16T04:33:56;3.63;;;1.27;;
31306;SDS011;17935;51.120;13.132;2022-10-16T04:36:22;3.00;;;0.93;;
31306;SDS011;17935;51.120;13.132;2022-10-16T04:38:48;3.15;;;1.15;;
31306;SDS011;17935;51.120;13.132;2022-10-16T04:41:14;1.67;;;1.30;;
31306;SDS011;17935;51.120;13.132;2022-10-16T04:43:40;1.20;;;1.10;;
31306;SDS011;17935;51.120;13.132;2022-10-16T04:46:06;1.83;;;1.10;;
31306;SDS011;17935;51.120;13.132;2022-10-16T04:48:32;1.00;;;0.90;;
31306;SDS011;17935;51.120;13.132;2022-10-16T04:50:58;4.45;;;1.33;;
31306;SDS011;17935;51.120;13.132;2022-10-16T04:53:24;1.48;;;1.00;;
31306;SDS011;17935;51.120;13.132;2022-10-16T04:55:50;4.68;;;1.60;;
31306;SDS011;17935;51.120;13.132;2022-10-16T04:58:16;2.10;;;1.20;;
31306;SDS011;17935;51.120;13.132;2022-10-16T05:00:43;2.67;;;1.30;;
31306;SDS011;17935;51.120;13.132;2022-10-16T05:03:11;1.45;;;1.35;;
31306;SDS011;17935;51.120;13.132;2022-10-16T05:05:41;2.00;;;1.50;;
31306;SDS011;17935;51.120;13.132;2022-10-16T05:08:07;2.88;;;1.23;;
31306;SDS011;17935;51.120;13.132;2022-10-16T05:10:33;2.15;;;1.08;;
31306;SDS011;17935;51.120;13.132;2022-10-16T05:12:59;2.80;;;1.00;;
31306;SDS011;17935;51.120;13.132;2022-10-16T05:15:25;2.67;;;1.25;;
31306;SDS011;17935;51.120;13.132;2022-10-16T05:17:52;2.17;;;1.10;;
31306;SDS011;17935;51.120;13.132;2022-10-16T05:20:18;1.05;;;1.05;;
31306;SDS011;17935;51.120;13.132;2022-10-16T05:22:44;1.15;;;1.05;;
31306;SDS011;17935;51.120;13.132;2022-10-16T05:25:10;2.58;;;1.15;;
31306;SDS011;17935;51.120;13.132;2022-10-16T05:27:36;1.30;;;1.20;;
31306;SDS011;17935;51.120;13.132;2022-10-16T05:30:02;1.33;;;1.23;;
31306;SDS011;17935;51.120;13.132;2022-10-16T05:32:28;2.65;;;1.40;;
31306;SDS011;17935;51.120;13.132;2022-10-16T05:34:54;1.63;;;1.38;;
31306;SDS011;17935;51.120;13.132;2022-10-16T05:37:20;1.75;;;1.42;;
31306;SDS011;17935;51.120;13.132;2022-10-16T05:39:46;1.30;;;1.20;;
31306;SDS011;17935;51.120;13.132;2022-10-16T05:42:12;1.30;;;1.13;;
31306;SDS011;17935;51.120;13.132;2022-10-16T05:44:38;2.60;;;1.33;;
31306;SDS011;17935;51.120;13.132;2022-10-16T05:47:04;1.20;;;1.10;;
31306;SDS011;17935;51.120;13.132;2022-10-16T05:49:30;2.55;;;1.50;;
31306;SDS011;17935;51.120;13.132;2022-10-16T05:51:56;2.83;;;1.40;;
31306;SDS011;17935;51.120;13.132;2022-10-16T05:54:22;4.50;;;1.27;;
31306;SDS011;17935;51.120;13.132;2022-10-16T05:56:48;2.42;;;1.27;;
31306;SDS011;17935;51.120;13.132;2022-10-16T05:59:14;1.30;;;1.20;;
31306;SDS011;17935;51.120;13.132;2022-10-16T06:01:40;2.22;;;1.40;;
31306;SDS011;17935;51.120;13.132;2022-10-16T06:04:06;1.48;;;1.10;;
31306;SDS011;17935;51.120;13.132;2022-10-16T06:06:31;1.00;;;1.00;;
31306;SDS011;17935;51.120;13.132;2022-10-16T06:08:57;3.75;;;1.50;;
31306;SDS011;17935;51.120;13.132;2022-10-16T06:11:25;0.88;;;0.88;;
31306;SDS011;17935;51.120;13.132;2022-10-16T06:13:52;0.77;;;0.77;;
31306;SDS011;17935;51.120;13.132;2022-10-16T06:16:19;1.00;;;0.98;;
31306;SDS011;17935;51.120;13.132;2022-10-16T06:18:45;1.60;;;1.00;;
31306;SDS011;17935;51.120;13.132;2022-10-16T06:21:12;1.05;;;1.00;;
31306;SDS011;17935;51.120;13.132;2022-10-16T06:23:39;2.80;;;1.08;;
31306;SDS011;17935;51.120;13.132;2022-10-16T06:26:06;2.88;;;0.90;;
31306;SDS011;17935;51.120;13.132;2022-10-16T06:28:32;4.18;;;1.10;;
31306;SDS011;17935;51.120;13.132;2022-10-16T06:30:58;0.90;;;0.90;;
31306;SDS011;17935;51.120;13.132;2022-10-16T06:33:25;1.50;;;0.90;;
31306;SDS011;17935;51.120;13.132;2022-10-16T06:35:51;0.98;;;0.85;;
31306;SDS011;17935;51.120;13.132;2022-10-16T06:38:17;0.88;;;0.73;;
31306;SDS011;17935;51.120;13.132;2022-10-16T06:40:43;3.15;;;1.20;;
31306;SDS011;17935;51.120;13.132;2022-10-16T06:43:08;1.95;;;0.90;;
31306;SDS011;17935;51.120;13.132;2022-10-16T06:45:34;0.80;;;0.80;;
31306;SDS011;17935;51.120;13.132;2022-10-16T06:48:00;1.27;;;0.70;;
31306;SDS011;17935;51.120;13.132;2022-10-16T06:50:26;0.70;;;0.70;;
31306;SDS011;17935;51.120;13.132;2022-10-16T06:52:52;0.80;;;0.80;;
31306;SDS011;17935;51.120;13.132;2022-10-16T06:55:18;1.20;;;0.90;;
31306;SDS011;17935;51.120;13.132;2022-10-16T06:57:46;0.65;;;0.65;;
31306;SDS011;17935;51.120;13.132;2022-10-16T07:00:12;0.68;;;0.60;;
31306;SDS011;17935;51.120;13.132;2022-10-16T07:02:38;1.02;;;0.70;;
31306;SDS011;17935;51.120;13.132;2022-10-16T07:05:04;0.90;;;0.70;;
31306;SDS011;17935;51.120;13.132;2022-10-16T07:07:30;0.90;;;0.90;;
31306;SDS011;17935;51.120;13.132;2022-10-16T07:09:56;0.68;;;0.68;;
31306;SDS011;17935;51.120;13.132;2022-10-16T07:12:22;0.60;;;0.60;;
31306;SDS011;17935;51.120;13.132;2022-10-16T07:14:48;0.50;;;0.50;;
31306;SDS011;17935;51.120;13.132;2022-10-16T07:17:17;3.15;;;0.73;;
31306;SDS011;17935;51.120;13.132;2022-10-16T07:19:43;0.65;;;0.65;;
31306;SDS011;17935;51.120;13.132;2022-10-16T07:22:09;2.17;;;1.13;;
31306;SDS011;17935;51.120;13.132;2022-10-16T07:24:34;2.17;;;1.15;;
31306;SDS011;17935;51.120;13.132;2022-10-16T07:27:00;0.90;;;0.80;;
31306;SDS011;17935;51.120;13.132;2022-10-16T07:29:27;5.80;;;0.88;;
31306;SDS011;17935;51.120;13.132;2022-10-16T07:31:53;2.58;;;0.50;;
31306;SDS011;17935;51.120;13.132;2022-10-16T07:34:19;6.57;;;0.80;;
31306;SDS011;17935;51.120;13.132;2022-10-16T07:36:49;1.05;;;0.77;;
31306;SDS011;17935;51.120;13.132;2022-10-16T07:39:16;0.65;;;0.65;;
31306;SDS011;17935;51.120;13.132;2022-10-16T07:41:42;0.63;;;0.60;;
31306;SDS011;17935;51.120;13.132;2022-10-16T07:44:08;3.80;;;0.77;;
31306;SDS011;17935;51.120;13.132;2022-10-16T07:46:34;1.65;;;0.50;;
31306;SDS011;17935;51.120;13.132;2022-10-16T07:49:01;1.88;;;0.70;;
31306;SDS011;17935;51.120;13.132;2022-10-16T07:51:27;0.77;;;0.77;;
31306;SDS011;17935;51.120;13.132;2022-10-16T07:53:53;2.45;;;2.25;;
31306;SDS011;17935;51.120;13.132;2022-10-16T07:56:19;3.78;;;0.55;;
31306;SDS011;17935;51.120;13.132;2022-10-16T07:58:46;1.50;;;0.57;;
31306;SDS011;17935;51.120;13.132;2022-10-16T08:01:13;4.18;;;0.95;;
31306;SDS011;17935;51.120;13.132;2022-10-16T08:03:42;1.80;;;1.10;;
31306;SDS011;17935;51.120;13.132;2022-10-16T08:06:08;0.70;;;0.70;;
31306;SDS011;17935;51.120;13.132;2022-10-16T08:08:34;1.33;;;0.60;;
31306;SDS011;17935;51.120;13.132;2022-10-16T08:11:00;0.98;;;0.88;;
31306;SDS011;17935;51.120;13.132;2022-10-16T08:13:28;0.68;;;0.65;;
31306;SDS011;17935;51.120;13.132;2022-10-16T08:15:54;1.92;;;0.70;;
31306;SDS011;17935;51.120;13.132;2022-10-16T08:18:20;3.22;;;0.60;;
31306;SDS011;17935;51.120;13.132;2022-10-16T08:20:46;2.78;;;0.63;;
31306;SDS011;17935;51.120;13.132;2022-10-16T08:23:12;2.92;;;0.75;;
31306;SDS011;17935;51.120;13.132;2022-10-16T08:25:39;0.50;;;0.50;;
31306;SDS011;17935;51.120;13.132;2022-10-16T08:28:05;0.90;;;0.50;;
31306;SDS011;17935;51.120;13.132;2022-10-16T08:30:31;0.95;;;0.52;;
31306;SDS011;17935;51.120;13.132;2022-10-16T08:32:58;0.63;;;0.50;;
31306;SDS011;17935;51.120;13.132;2022-10-16T08:35:24;2.38;;;0.47;;
31306;SDS011;17935;51.120;13.132;2022-10-16T08:37:50;1.45;;;0.40;;
31306;SDS011;17935;51.120;13.132;2022-10-16T08:40:20;3.85;;;0.50;;
31306;SDS011;17935;51.120;13.132;2022-10-16T08:48:08;0.77;;;0.60;;
31306;SDS011;17935;51.120;13.132;2022-10-16T08:50:38;0.77;;;0.40;;
31306;SDS011;17935;51.120;13.132;2022-10-16T08:53:05;1.42;;;0.40;;
31306;SDS011;17935;51.120;13.132;2022-10-16T08:58:09;0.40;;;0.40;;
31306;SDS011;17935;51.120;13.132;2022-10-16T09:00:36;0.50;;;0.50;;
31306;SDS011;17935;51.120;13.132;2022-10-16T09:03:10;0.65;;;0.50;;
31306;SDS011;17935;51.120;13.132;2022-10-16T09:18:49;3.85;;;0.73;;
31306;SDS011;17935;51.120;13.132;2022-10-16T09:21:24;2.17;;;0.85;;
31306;SDS011;17935;51.120;13.132;2022-10-16T09:23:51;2.85;;;0.90;;
31306;SDS011;17935;51.120;13.132;2022-10-16T09:26:17;2.05;;;0.70;;
31306;SDS011;17935;51.120;13.132;2022-10-16T09:28:46;1.20;;;0.57;;
31306;SDS011;17935;51.120;13.132;2022-10-16T09:31:16;0.70;;;0.70;;
31306;SDS011;17935;51.120;13.132;2022-10-16T09:33:43;0.60;;;0.60;;
31306;SDS011;17935;51.120;13.132;2022-10-16T09:36:10;0.70;;;0.70;;
31306;SDS011;17935;51.120;13.132;2022-10-16T09:38:36;1.15;;;0.75;;
31306;SDS011;17935;51.120;13.132;2022-10-16T09:41:09;0.98;;;0.70;;
31306;SDS011;17935;51.120;13.132;2022-10-16T09:43:40;2.30;;;0.80;;
31306;SDS011;17935;51.120;13.132;2022-10-16T09:48:53;1.08;;;0.90;;
31306;SDS011;17935;51.120;13.132;2022-10-16T09:51:38;2.50;;;0.80;;
31306;SDS011;17935;51.120;13.132;2022-10-16T09:56:34;0.80;;;0.80;;
31306;SDS011;17935;51.120;13.132;2022-10-16T09:59:13;2.85;;;0.77;;
31306;SDS011;17935;51.120;13.132;2022-10-16T10:01:40;2.13;;;0.70;;
31306;SDS011;17935;51.120;13.132;2022-10-16T10:04:07;1.15;;;0.70;;
31306;SDS011;17935;51.120;13.132;2022-10-16T10:06:34;1.15;;;0.60;;
31306;SDS011;17935;51.120;13.132;2022-10-16T10:11:56;0.68;;;0.60;;
31306;SDS011;17935;51.120;13.132;2022-10-16T10:14:23;1.67;;;0.90;;
31306;SDS011;17935;51.120;13.132;2022-10-16T10:16:51;1.30;;;0.73;;
31306;SDS011;17935;51.120;13.132;2022-10-16T10:19:21;0.95;;;0.80;;
31306;SDS011;17935;51.120;13.132;2022-10-16T10:21:47;0.73;;;0.73;;
31306;SDS011;17935;51.120;13.132;2022-10-16T10:24:14;1.30;;;1.00;;
31306;SDS011;17935;51.120;13.132;2022-10-16T10:26:42;0.80;;;0.68;;
31306;SDS011;17935;51.120;13.132;2022-10-16T10:29:17;0.82;;;0.70;;
31306;SDS011;17935;51.120;13.132;2022-10-16T10:31:48;0.88;;;0.70;;
31306;SDS011;17935;51.120;13.132;2022-10-16T10:37:08;2.15;;;0.82;;
31306;SDS011;17935;51.120;13.132;2022-10-16T10:39:43;1.77;;;0.82;;
31306;SDS011;17935;51.120;13.132;2022-10-16T10:42:30;0.80;;;0.80;;
31306;SDS011;17935;51.120;13.132;2022-10-16T10:45:11;1.83;;;1.00;;
31306;SDS011;17935;51.120;13.132;2022-10-16T10:50:24;5.95;;;0.85;;
31306;SDS011;17935;51.120;13.132;2022-10-16T10:53:04;1.33;;;0.85;;
31306;SDS011;17935;51.120;13.132;2022-10-16T11:00:59;2.05;;;1.00;;
31306;SDS011;17935;51.120;13.132;2022-10-16T11:03:31;2.65;;;0.75;;
31306;SDS011;17935;51.120;13.132;2022-10-16T11:06:16;1.15;;;0.80;;
31306;SDS011;17935;51.120;13.132;2022-10-16T11:11:20;1.67;;;0.90;;
31306;SDS011;17935;51.120;13.132;2022-10-16T11:16:27;1.63;;;0.80;;
31306;SDS011;17935;51.120;13.132;2022-10-16T11:19:11;2.42;;;1.17;;
31306;SDS011;17935;51.120;13.132;2022-10-16T11:21:41;3.88;;;0.85;;
31306;SDS011;17935;51.120;13.132;2022-10-16T11:24:14;1.48;;;0.90;;
31306;SDS011;17935;51.120;13.132;2022-10-16T11:26:42;0.85;;;0.57;;
31306;SDS011;17935;51.120;13.132;2022-10-16T11:29:11;1.00;;;0.88;;
31306;SDS011;17935;51.120;13.132;2022-10-16T11:31:40;2.30;;;1.45;;
31306;SDS011;17935;51.120;13.132;2022-10-16T11:34:17;1.25;;;0.85;;
31306;SDS011;17935;51.120;13.132;2022-10-16T11:36:47;5.85;;;0.88;;
31306;SDS011;17935;51.120;13.132;2022-10-16T11:39:24;3.42;;;0.90;;
31306;SDS011;17935;51.120;13.132;2022-10-16T11:49:31;2.08;;;0.88;;
31306;SDS011;17935;51.120;13.132;2022-10-16T11:54:38;2.35;;;0.90;;
31306;SDS011;17935;51.120;13.132;2022-10-16T11:57:14;3.80;;;0.90;;
31306;SDS011;17935;51.120;13.132;2022-10-16T11:59:52;1.73;;;0.77;;
31306;SDS011;17935;51.120;13.132;2022-10-16T12:04:51;3.47;;;1.10;;
31306;SDS011;17935;51.120;13.132;2022-10-16T12:09:49;2.72;;;0.82;;
31306;SDS011;17935;51.120;13.132;2022-10-16T12:12:25;4.78;;;1.85;;
31306;SDS011;17935;51.120;13.132;2022-10-16T12:15:01;9.32;;;1.30;;
31306;SDS011;17935;51.120;13.132;2022-10-16T12:17:34;0.98;;;0.75;;
31306;SDS011;17935;51.120;13.132;2022-10-16T12:22:28;3.80;;;0.82;;
31306;SDS011;17935;51.120;13.132;2022-10-16T12:24:55;2.35;;;0.82;;
31306;SDS011;17935;51.120;13.132;2022-10-16T12:27:26;1.45;;;0.65;;
31306;SDS011;17935;51.120;13.132;2022-10-16T12:29:57;3.75;;;1.20;;
31306;SDS011;17935;51.120;13.132;2022-10-16T12:34:49;1.65;;;1.13;;
31306;SDS011;17935;51.120;13.132;2022-10-16T12:37:23;0.90;;;0.70;;
31306;SDS011;17935;51.120;13.132;2022-10-16T12:39:50;3.95;;;1.00;;
31306;SDS011;17935;51.120;13.132;2022-10-16T12:42:38;3.50;;;0.80;;
31306;SDS011;17935;51.120;13.132;2022-10-16T12:45:21;2.72;;;1.00;;
31306;SDS011;17935;51.120;13.132;2022-10-16T12:47:49;4.57;;;0.90;;
31306;SDS011;17935;51.120;13.132;2022-10-16T12:50:27;0.73;;;0.60;;
31306;SDS011;17935;51.120;13.132;2022-10-16T12:52:53;1.85;;;0.73;;
31306;SDS011;17935;51.120;13.132;2022-10-16T12:55:20;2.83;;;0.85;;
31306;SDS011;17935;51.120;13.132;2022-10-16T13:00:50;3.53;;;1.00;;
31306;SDS011;17935;51.120;13.132;2022-10-16T13:06:08;5.32;;;1.80;;
31306;SDS011;17935;51.120;13.132;2022-10-16T13:16:17;5.75;;;2.40;;
31306;SDS011;17935;51.120;13.132;2022-10-16T13:21:33;4.95;;;2.10;;
31306;SDS011;17935;51.120;13.132;2022-10-16T13:26:49;1.85;;;1.15;;
31306;SDS011;17935;51.120;13.132;2022-10-16T13:29:18;5.40;;;0.93;;
31306;SDS011;17935;51.120;13.132;2022-10-16T13:31:44;1.98;;;1.00;;
31306;SDS011;17935;51.120;13.132;2022-10-16T13:34:17;4.10;;;1.23;;
31306;SDS011;17935;51.120;13.132;2022-10-16T13:36:45;1.60;;;1.05;;
31306;SDS011;17935;51.120;13.132;2022-10-16T13:41:37;1.48;;;0.82;;
31306;SDS011;17935;51.120;13.132;2022-10-16T13:44:04;2.33;;;1.10;;
31306;SDS011;17935;51.120;13.132;2022-10-16T13:46:30;1.23;;;0.70;;
31306;SDS011;17935;51.120;13.132;2022-10-16T13:49:03;2.22;;;1.05;;
31306;SDS011;17935;51.120;13.132;2022-10-16T13:51:30;2.05;;;1.13;;
31306;SDS011;17935;51.120;13.132;2022-10-16T13:53:56;3.83;;;1.35;;
31306;SDS011;17935;51.120;13.132;2022-10-16T13:56:25;2.83;;;1.38;;
31306;SDS011;17935;51.120;13.132;2022-10-16T13:59:05;1.35;;;1.25;;
31306;SDS011;17935;51.120;13.132;2022-10-16T14:01:33;1.48;;;1.00;;
31306;SDS011;17935;51.120;13.132;2022-10-16T14:04:00;0.70;;;0.70;;
31306;SDS011;17935;51.120;13.132;2022-10-16T14:06:28;1.30;;;0.98;;
31306;SDS011;17935;51.120;13.132;2022-10-16T14:08:58;2.90;;;0.90;;
31306;SDS011;17935;51.120;13.132;2022-10-16T14:11:25;3.50;;;0.95;;
31306;SDS011;17935;51.120;13.132;2022-10-16T14:13:51;1.42;;;0.88;;
31306;SDS011;17935;51.120;13.132;2022-10-16T14:16:25;2.83;;;1.10;;
31306;SDS011;17935;51.120;13.132;2022-10-16T14:21:24;1.45;;;1.15;;
31306;SDS011;17935;51.120;13.132;2022-10-16T14:23:51;1.35;;;1.17;;
31306;SDS011;17935;51.120;13.132;2022-10-16T14:26:19;3.38;;;0.90;;
31306;SDS011;17935;51.120;13.132;2022-10-16T14:28:45;7.47;;;1.15;;
31306;SDS011;17935;51.120;13.132;2022-10-16T14:33:56;6.40;;;1.48;;
31306;SDS011;17935;51.120;13.132;2022-10-16T14:36:22;3.00;;;1.30;;
31306;SDS011;17935;51.120;13.132;2022-10-16T14:38:54;4.13;;;1.20;;
31306;SDS011;17935;51.120;13.132;2022-10-16T14:41:22;4.13;;;0.90;;
31306;SDS011;17935;51.120;13.132;2022-10-16T14:43:50;1.02;;;0.88;;
31306;SDS011;17935;51.120;13.132;2022-10-16T14:46:17;0.95;;;0.95;;
31306;SDS011;17935;51.120;13.132;2022-10-16T14:48:44;0.90;;;0.90;;
31306;SDS011;17935;51.120;13.132;2022-10-16T14:51:13;4.10;;;1.00;;
31306;SDS011;17935;51.120;13.132;2022-10-16T14:53:39;1.58;;;1.13;;
31306;SDS011;17935;51.120;13.132;2022-10-16T14:56:06;2.78;;;1.08;;
31306;SDS011;17935;51.120;13.132;2022-10-16T14:58:33;0.77;;;0.77;;
31306;SDS011;17935;51.120;13.132;2022-10-16T15:00:59;1.98;;;1.30;;
31306;SDS011;17935;51.120;13.132;2022-10-16T15:03:25;1.10;;;1.02;;
31306;SDS011;17935;51.120;13.132;2022-10-16T15:05:50;1.98;;;0.90;;
31306;SDS011;17935;51.120;13.132;2022-10-16T15:08:16;2.50;;;1.33;;
31306;SDS011;17935;51.120;13.132;2022-10-16T15:10:43;2.33;;;1.55;;
31306;SDS011;17935;51.120;13.132;2022-10-16T15:13:11;3.78;;;2.63;;
31306;SDS011;17935;51.120;13.132;2022-10-16T15:15:39;3.17;;;1.45;;
31306;SDS011;17935;51.120;13.132;2022-10-16T15:18:06;1.50;;;1.40;;
31306;SDS011;17935;51.120;13.132;2022-10-16T15:20:35;2.05;;;1.08;;
31306;SDS011;17935;51.120;13.132;2022-10-16T15:23:02;1.63;;;1.52;;
31306;SDS011;17935;51.120;13.132;2022-10-16T15:27:55;1.67;;;1.25;;
31306;SDS011;17935;51.120;13.132;2022-10-16T15:30:21;1.45;;;1.35;;
31306;SDS011;17935;51.120;13.132;2022-10-16T15:32:47;2.17;;;1.48;;
31306;SDS011;17935;51.120;13.132;2022-10-16T15:35:13;2.28;;;1.30;;
31306;SDS011;17935;51.120;13.132;2022-10-16T15:37:38;4.82;;;1.00;;
31306;SDS011;17935;51.120;13.132;2022-10-16T15:40:05;3.15;;;1.73;;
31306;SDS011;17935;51.120;13.132;2022-10-16T15:42:31;2.65;;;1.80;;
31306;SDS011;17935;51.120;13.132;2022-10-16T15:44:57;2.72;;;1.48;;
31306;SDS011;17935;51.120;13.132;2022-10-16T15:47:22;1.40;;;1.30;;
31306;SDS011;17935;51.120;13.132;2022-10-16T15:49:48;2.15;;;1.33;;
31306;SDS011;17935;51.120;13.132;2022-10-16T15:52:14;3.55;;;1.73;;
31306;SDS011;17935;51.120;13.132;2022-10-16T15:54:42;3.90;;;3.15;;
31306;SDS011;17935;51.120;13.132;2022-10-16T15:57:08;7.68;;;3.45;;
31306;SDS011;17935;51.120;13.132;2022-10-16T15:59:34;9.05;;;4.40;;
31306;SDS011;17935;51.120;13.132;2022-10-16T16:02:00;8.77;;;4.40;;
31306;SDS011;17935;51.120;13.132;2022-10-16T16:04:29;8.40;;;3.90;;
31306;SDS011;17935;51.120;13.132;2022-10-16T16:06:55;6.03;;;3.45;;
31306;SDS011;17935;51.120;13.132;2022-10-16T16:09:20;5.70;;;3.30;;
31306;SDS011;17935;51.120;13.132;2022-10-16T16:11:46;3.28;;;2.45;;
31306;SDS011;17935;51.120;13.132;2022-10-16T16:14:13;3.72;;;2.30;;
31306;SDS011;17935;51.120;13.132;2022-10-16T16:16:39;3.17;;;2.05;;
31306;SDS011;17935;51.120;13.132;2022-10-16T16:19:06;2.40;;;2.00;;
31306;SDS011;17935;51.120;13.132;2022-10-16T16:21:33;5.82;;;2.03;;
31306;SDS011;17935;51.120;13.132;2022-10-16T16:23:59;4.18;;;1.15;;
31306;SDS011;17935;51.120;13.132;2022-10-16T16:26:26;2.20;;;1.42;;
31306;SDS011;17935;51.120;13.132;2022-10-16T16:28:53;2.95;;;1.80;;
31306;SDS011;17935;51.120;13.132;2022-10-16T16:31:20;2.42;;;1.65;;